sensor_id;sensor_type;location;lat;lon;timestamp;pressure;altitude;pressure_sealevel;temperature;humidity
4590;BME280;2307;48.448;9.216;2022-10-26T00:01:56;95441.66;;;14.24;100.00
4590;BME280;2307;48.448;9.216;2022-10-26T00:04:22;95438.69;;;14.16;100.00
4590;BME280;2307;48.448;9.216;2022-10-26T00:06:49;95439.72;;;14.15;100.00
4590;BME280;2307;48.448;9.216;2022-10-26T00:09:15;95439.25;;;14.23;100.00
4590;BME280;2307;48.448;9.216;2022-10-26T00:11:43;95437.19;;;14.30;100.00
4590;BME280;2307;48.448;9.216;2022-10-26T00:14:09;95436.75;;;14.43;100.00
4590;BME280;2307;48.448;9.216;2022-10-26T00:16:35;95438.03;;;14.35;100.00
4590;BME280;2307;48.448;9.216;2022-10-26T00:19:02;95432.34;;;14.22;100.00
4590;BME280;2307;48.448;9.216;2022-10-26T00:21:28;95427.84;;;14.27;100.00
4590;BME280;2307;48.448;9.216;2022-10-26T00:23:54;95427.31;;;14.25;100.00
4590;BME280;2307;48.448;9.216;2022-10-26T00:26:21;95423.03;;;14.19;100.00
4590;BME280;2307;48.448;9.216;2022-10-26T00:28:49;95421.19;;;14.25;100.00
4590;BME280;2307;48.448;9.216;2022-10-26T00:31:17;95431.59;;;14.31;100.00
4590;BME280;2307;48.448;9.216;2022-10-26T00:33:44;95421.03;;;14.36;100.00
4590;BME280;2307;48.448;9.216;2022-10-26T00:36:10;95427.22;;;14.47;100.00
4590;BME280;2307;48.448;9.216;2022-10-26T00:38:37;95431.44;;;14.43;100.00
4590;BME280;2307;48.448;9.216;2022-10-26T00:41:10;95430.91;;;14.46;100.00
4590;BME280;2307;48.448;9.216;2022-10-26T00:43:38;95430.13;;;14.46;100.00
4590;BME280;2307;48.448;9.216;2022-10-26T00:46:07;95443.09;;;14.37;100.00
4590;BME280;2307;48.448;9.216;2022-10-26T00:48:35;95444.88;;;14.31;100.00
4590;BME280;2307;48.448;9.216;2022-10-26T00:51:04;95435.97;;;14.43;100.00
4590;BME280;2307;48.448;9.216;2022-10-26T00:53:32;95450.00;;;14.38;100.00
4590;BME280;2307;48.448;9.216;2022-10-26T00:55:58;95436.22;;;14.46;100.00
4590;BME280;2307;48.448;9.216;2022-10-26T00:58:26;95430.97;;;14.56;100.00
4590;BME280;2307;48.448;9.216;2022-10-26T01:00:53;95425.19;;;14.64;100.00
4590;BME280;2307;48.448;9.216;2022-10-26T01:03:21;95426.00;;;14.70;100.00
4590;BME280;2307;48.448;9.216;2022-10-26T01:05:49;95417.19;;;14.64;100.00
4590;BME280;2307;48.448;9.216;2022-10-26T01:08:17;95415.06;;;14.66;100.00
4590;BME280;2307;48.448;9.216;2022-10-26T01:10:44;95412.88;;;14.53;100.00
4590;BME280;2307;48.448;9.216;2022-10-26T01:13:10;95421.44;;;14.60;100.00
4590;BME280;2307;48.448;9.216;2022-10-26T01:15:40;95418.25;;;14.63;100.00
4590;BME280;2307;48.448;9.216;2022-10-26T01:18:11;95413.44;;;14.55;100.00
4590;BME280;2307;48.448;9.216;2022-10-26T01:23:27;95392.13;;;14.45;100.00
4590;BME280;2307;48.448;9.216;2022-10-26T01:26:24;95393.47;;;14.53;100.00
4590;BME280;2307;48.448;9.216;2022-10-26T01:29:02;95382.81;;;14.43;100.00
4590;BME280;2307;48.448;9.216;2022-10-26T01:31:37;95377.38;;;14.22;100.00
4590;BME280;2307;48.448;9.216;2022-10-26T01:34:07;95373.53;;;14.03;100.00
4590;BME280;2307;48.448;9.216;2022-10-26T01:36:37;95378.09;;;14.13;100.00
4590;BME280;2307;48.448;9.216;2022-10-26T01:39:08;95389.53;;;14.13;100.00
4590;BME280;2307;48.448;9.216;2022-10-26T01:41:36;95390.84;;;14.11;100.00
4590;BME280;2307;48.448;9.216;2022-10-26T01:44:05;95400.44;;;14.17;100.00
4590;BME280;2307;48.448;9.216;2022-10-26T01:46:34;95397.28;;;14.20;100.00
4590;BME280;2307;48.448;9.216;2022-10-26T01:49:05;95395.13;;;14.17;100.00
4590;BME280;2307;48.448;9.216;2022-10-26T01:51:33;95391.75;;;14.31;100.00
4590;BME280;2307;48.448;9.216;2022-10-26T01:53:59;95394.50;;;14.42;100.00
4590;BME280;2307;48.448;9.216;2022-10-26T01:56:27;95401.44;;;14.43;100.00
4590;BME280;2307;48.448;9.216;2022-10-26T01:59:02;95395.53;;;14.41;100.00
4590;BME280;2307;48.448;9.216;2022-10-26T02:01:43;95388.03;;;14.32;100.00
4590;BME280;2307;48.448;9.216;2022-10-26T02:04:17;95392.06;;;14.35;100.00
4590;BME280;2307;48.448;9.216;2022-10-26T02:06:48;95383.59;;;14.43;100.00
4590;BME280;2307;48.448;9.216;2022-10-26T02:09:18;95388.16;;;14.48;100.00
4590;BME280;2307;48.448;9.216;2022-10-26T02:11:45;95390.81;;;14.48;100.00
4590;BME280;2307;48.448;9.216;2022-10-26T02:14:16;95385.78;;;14.51;100.00
4590;BME280;2307;48.448;9.216;2022-10-26T02:16:47;95387.63;;;14.46;100.00
4590;BME280;2307;48.448;9.216;2022-10-26T02:19:21;95391.03;;;14.41;100.00
4590;BME280;2307;48.448;9.216;2022-10-26T02:21:51;95387.91;;;14.59;100.00
4590;BME280;2307;48.448;9.216;2022-10-26T02:24:19;95386.59;;;14.57;100.00
4590;BME280;2307;48.448;9.216;2022-10-26T02:26:47;95388.72;;;14.60;100.00
4590;BME280;2307;48.448;9.216;2022-10-26T02:29:16;95395.94;;;14.69;100.00
4590;BME280;2307;48.448;9.216;2022-10-26T02:31:43;95390.34;;;14.66;100.00
4590;BME280;2307;48.448;9.216;2022-10-26T02:34:12;95397.50;;;14.65;100.00
4590;BME280;2307;48.448;9.216;2022-10-26T02:36:42;95391.19;;;14.76;100.00
4590;BME280;2307;48.448;9.216;2022-10-26T02:39:10;95392.75;;;14.67;100.00
4590;BME280;2307;48.448;9.216;2022-10-26T02:41:38;95391.94;;;14.67;100.00
4590;BME280;2307;48.448;9.216;2022-10-26T02:44:06;95396.97;;;14.58;100.00
4590;BME280;2307;48.448;9.216;2022-10-26T02:46:33;95401.53;;;14.68;100.00
4590;BME280;2307;48.448;9.216;2022-10-26T02:49:00;95416.22;;;14.80;100.00
4590;BME280;2307;48.448;9.216;2022-10-26T02:51:28;95426.03;;;14.80;100.00
4590;BME280;2307;48.448;9.216;2022-10-26T02:53:58;95435.34;;;14.82;100.00
4590;BME280;2307;48.448;9.216;2022-10-26T02:56:27;95440.03;;;14.65;100.00
4590;BME280;2307;48.448;9.216;2022-10-26T02:58:56;95448.53;;;14.57;100.00
4590;BME280;2307;48.448;9.216;2022-10-26T03:01:24;95446.31;;;14.39;100.00
4590;BME280;2307;48.448;9.216;2022-10-26T03:03:55;95442.13;;;14.53;100.00
4590;BME280;2307;48.448;9.216;2022-10-26T03:06:22;95455.31;;;14.38;100.00
4590;BME280;2307;48.448;9.216;2022-10-26T03:08:48;95460.66;;;14.43;100.00
4590;BME280;2307;48.448;9.216;2022-10-26T03:11:16;95472.44;;;14.52;100.00
4590;BME280;2307;48.448;9.216;2022-10-26T03:13:43;95474.44;;;14.35;100.00
4590;BME280;2307;48.448;9.216;2022-10-26T03:16:09;95487.28;;;14.48;100.00
4590;BME280;2307;48.448;9.216;2022-10-26T03:18:36;95494.53;;;14.26;100.00
4590;BME280;2307;48.448;9.216;2022-10-26T03:21:02;95500.69;;;14.31;100.00
4590;BME280;2307;48.448;9.216;2022-10-26T03:23:28;95522.44;;;14.23;100.00
4590;BME280;2307;48.448;9.216;2022-10-26T03:25:55;95518.13;;;14.17;100.00
4590;BME280;2307;48.448;9.216;2022-10-26T03:28:23;95509.50;;;14.05;100.00
4590;BME280;2307;48.448;9.216;2022-10-26T03:30:49;95509.81;;;14.09;100.00
4590;BME280;2307;48.448;9.216;2022-10-26T03:33:15;95503.03;;;14.23;100.00
4590;BME280;2307;48.448;9.216;2022-10-26T03:35:42;95505.09;;;14.16;100.00
4590;BME280;2307;48.448;9.216;2022-10-26T03:38:08;95511.03;;;13.96;100.00
4590;BME280;2307;48.448;9.216;2022-10-26T03:40:35;95501.63;;;13.83;100.00
4590;BME280;2307;48.448;9.216;2022-10-26T03:43:01;95492.47;;;13.69;100.00
4590;BME280;2307;48.448;9.216;2022-10-26T03:45:29;95489.72;;;13.59;100.00
4590;BME280;2307;48.448;9.216;2022-10-26T03:47:56;95491.81;;;13.84;100.00
4590;BME280;2307;48.448;9.216;2022-10-26T03:50:22;95493.25;;;13.97;100.00
4590;BME280;2307;48.448;9.216;2022-10-26T03:52:48;95496.41;;;13.94;100.00
4590;BME280;2307;48.448;9.216;2022-10-26T03:55:15;95497.41;;;13.88;100.00
4590;BME280;2307;48.448;9.216;2022-10-26T03:57:41;95502.94;;;13.81;100.00
4590;BME280;2307;48.448;9.216;2022-10-26T04:00:08;95461.38;;;13.65;100.00
4590;BME280;2307;48.448;9.216;2022-10-26T04:02:36;95435.72;;;13.44;100.00
4590;BME280;2307;48.448;9.216;2022-10-26T04:05:03;95457.97;;;13.43;100.00
4590;BME280;2307;48.448;9.216;2022-10-26T04:07:29;95436.03;;;13.25;100.00
4590;BME280;2307;48.448;9.216;2022-10-26T04:09:56;95434.69;;;13.23;100.00
4590;BME280;2307;48.448;9.216;2022-10-26T04:12:22;95456.63;;;13.40;100.00
4590;BME280;2307;48.448;9.216;2022-10-26T04:14:49;95445.66;;;13.58;100.00
4590;BME280;2307;48.448;9.216;2022-10-26T04:17:16;95446.84;;;13.72;100.00
4590;BME280;2307;48.448;9.216;2022-10-26T04:19:44;95459.22;;;13.89;100.00
4590;BME280;2307;48.448;9.216;2022-10-26T04:22:10;95452.59;;;13.96;100.00
4590;BME280;2307;48.448;9.216;2022-10-26T04:24:36;95458.88;;;14.17;100.00
4590;BME280;2307;48.448;9.216;2022-10-26T04:27:03;95459.84;;;14.38;100.00
4590;BME280;2307;48.448;9.216;2022-10-26T04:29:29;95466.03;;;14.48;100.00
4590;BME280;2307;48.448;9.216;2022-10-26T04:31:55;95470.78;;;14.46;100.00
4590;BME280;2307;48.448;9.216;2022-10-26T04:34:22;95472.44;;;14.52;100.00
4590;BME280;2307;48.448;9.216;2022-10-26T04:36:49;95490.75;;;14.54;100.00
4590;BME280;2307;48.448;9.216;2022-10-26T04:39:16;95490.47;;;14.50;100.00
4590;BME280;2307;48.448;9.216;2022-10-26T04:41:42;95486.19;;;14.49;100.00
4590;BME280;2307;48.448;9.216;2022-10-26T04:44:09;95483.84;;;14.53;100.00
4590;BME280;2307;48.448;9.216;2022-10-26T04:46:35;95473.50;;;14.56;100.00
4590;BME280;2307;48.448;9.216;2022-10-26T04:49:04;95470.38;;;14.64;100.00
4590;BME280;2307;48.448;9.216;2022-10-26T04:51:30;95468.25;;;14.71;100.00
4590;BME280;2307;48.448;9.216;2022-10-26T04:53:58;95478.66;;;14.73;100.00
4590;BME280;2307;48.448;9.216;2022-10-26T04:56:24;95476.22;;;14.66;100.00
4590;BME280;2307;48.448;9.216;2022-10-26T04:58:52;95479.38;;;14.63;100.00
4590;BME280;2307;48.448;9.216;2022-10-26T05:01:18;95482.56;;;14.60;100.00
4590;BME280;2307;48.448;9.216;2022-10-26T05:03:47;95483.91;;;14.63;100.00
4590;BME280;2307;48.448;9.216;2022-10-26T05:06:13;95479.38;;;14.63;100.00
4590;BME280;2307;48.448;9.216;2022-10-26T05:08:40;95485.47;;;14.59;100.00
4590;BME280;2307;48.448;9.216;2022-10-26T05:11:07;95489.44;;;14.51;100.00
4590;BME280;2307;48.448;9.216;2022-10-26T05:13:34;95493.06;;;14.40;100.00
4590;BME280;2307;48.448;9.216;2022-10-26T05:16:00;95486.41;;;14.38;100.00
4590;BME280;2307;48.448;9.216;2022-10-26T05:18:27;95481.88;;;14.33;100.00
4590;BME280;2307;48.448;9.216;2022-10-26T05:20:53;95483.53;;;14.44;100.00
4590;BME280;2307;48.448;9.216;2022-10-26T05:23:20;95477.16;;;14.45;100.00
4590;BME280;2307;48.448;9.216;2022-10-26T05:25:46;95470.09;;;14.66;100.00
4590;BME280;2307;48.448;9.216;2022-10-26T05:28:15;95475.00;;;14.84;100.00
4590;BME280;2307;48.448;9.216;2022-10-26T05:30:43;95484.84;;;14.94;100.00
4590;BME280;2307;48.448;9.216;2022-10-26T05:33:10;95471.31;;;15.00;100.00
4590;BME280;2307;48.448;9.216;2022-10-26T05:35:36;95475.88;;;15.05;100.00
4590;BME280;2307;48.448;9.216;2022-10-26T05:38:06;95477.75;;;15.14;100.00
4590;BME280;2307;48.448;9.216;2022-10-26T05:40:32;95473.78;;;15.17;100.00
4590;BME280;2307;48.448;9.216;2022-10-26T05:42:59;95478.00;;;15.08;100.00
4590;BME280;2307;48.448;9.216;2022-10-26T05:45:28;95479.84;;;15.07;100.00
4590;BME280;2307;48.448;9.216;2022-10-26T05:47:54;95486.78;;;15.08;100.00
4590;BME280;2307;48.448;9.216;2022-10-26T05:50:20;95487.84;;;15.02;100.00
4590;BME280;2307;48.448;9.216;2022-10-26T05:52:47;95492.59;;;14.95;100.00
4590;BME280;2307;48.448;9.216;2022-10-26T05:55:17;95502.47;;;15.05;100.00
4590;BME280;2307;48.448;9.216;2022-10-26T05:57:43;95513.69;;;15.12;100.00
4590;BME280;2307;48.448;9.216;2022-10-26T06:00:14;95513.13;;;15.10;100.00
4590;BME280;2307;48.448;9.216;2022-10-26T06:02:43;95512.34;;;15.09;100.00
4590;BME280;2307;48.448;9.216;2022-10-26T06:05:14;95516.34;;;15.17;100.00
4590;BME280;2307;48.448;9.216;2022-10-26T06:07:44;95517.44;;;15.26;100.00
4590;BME280;2307;48.448;9.216;2022-10-26T06:10:11;95525.47;;;15.31;100.00
4590;BME280;2307;48.448;9.216;2022-10-26T06:12:37;95524.91;;;15.24;100.00
4590;BME280;2307;48.448;9.216;2022-10-26T06:15:04;95523.31;;;15.28;100.00
4590;BME280;2307;48.448;9.216;2022-10-26T06:17:39;95530.22;;;15.24;100.00
4590;BME280;2307;48.448;9.216;2022-10-26T06:20:23;95517.94;;;15.18;100.00
4590;BME280;2307;48.448;9.216;2022-10-26T06:22:58;95520.31;;;15.09;100.00
4590;BME280;2307;48.448;9.216;2022-10-26T06:25:27;95525.88;;;15.08;100.00
4590;BME280;2307;48.448;9.216;2022-10-26T06:28:03;95524.59;;;15.15;100.00
4590;BME280;2307;48.448;9.216;2022-10-26T06:30:32;95528.59;;;15.18;100.00
4590;BME280;2307;48.448;9.216;2022-10-26T06:32:58;95525.44;;;15.26;100.00
4590;BME280;2307;48.448;9.216;2022-10-26T06:35:29;95524.91;;;15.24;100.00
4590;BME280;2307;48.448;9.216;2022-10-26T06:38:00;95544.06;;;15.26;100.00
4590;BME280;2307;48.448;9.216;2022-10-26T06:40:28;95537.09;;;15.20;100.00
4590;BME280;2307;48.448;9.216;2022-10-26T06:42:56;95546.66;;;15.16;100.00
4590;BME280;2307;48.448;9.216;2022-10-26T06:45:23;95556.25;;;15.12;100.00
4590;BME280;2307;48.448;9.216;2022-10-26T06:47:51;95549.84;;;15.13;100.00
4590;BME280;2307;48.448;9.216;2022-10-26T06:50:31;95552.53;;;15.18;100.00
4590;BME280;2307;48.448;9.216;2022-10-26T06:53:07;95554.69;;;15.21;100.00
4590;BME280;2307;48.448;9.216;2022-10-26T06:55:37;95560.53;;;15.23;100.00
4590;BME280;2307;48.448;9.216;2022-10-26T06:58:04;95561.63;;;15.22;100.00
4590;BME280;2307;48.448;9.216;2022-10-26T07:00:33;95571.22;;;15.28;100.00
4590;BME280;2307;48.448;9.216;2022-10-26T07:03:00;95579.50;;;15.36;100.00
4590;BME280;2307;48.448;9.216;2022-10-26T07:05:26;95585.09;;;15.40;100.00
4590;BME280;2307;48.448;9.216;2022-10-26T07:07:54;95585.09;;;15.40;100.00
4590;BME280;2307;48.448;9.216;2022-10-26T07:10:20;95591.72;;;15.32;100.00
4590;BME280;2307;48.448;9.216;2022-10-26T07:12:47;95594.38;;;15.32;100.00
4590;BME280;2307;48.448;9.216;2022-10-26T07:15:13;95589.84;;;15.28;100.00
4590;BME280;2307;48.448;9.216;2022-10-26T07:17:43;95602.63;;;15.31;100.00
4590;BME280;2307;48.448;9.216;2022-10-26T07:20:10;95589.88;;;15.33;100.00
4590;BME280;2307;48.448;9.216;2022-10-26T07:22:36;95602.63;;;15.31;100.00
4590;BME280;2307;48.448;9.216;2022-10-26T07:25:05;95603.97;;;15.38;100.00
4590;BME280;2307;48.448;9.216;2022-10-26T07:27:32;95600.59;;;15.48;100.00
4590;BME280;2307;48.448;9.216;2022-10-26T07:29:58;95607.00;;;15.52;100.00
4590;BME280;2307;48.448;9.216;2022-10-26T07:32:24;95602.75;;;15.51;100.00
4590;BME280;2307;48.448;9.216;2022-10-26T07:34:52;95607.03;;;15.57;100.00
4590;BME280;2307;48.448;9.216;2022-10-26T07:37:18;95608.66;;;15.63;100.00
4590;BME280;2307;48.448;9.216;2022-10-26T07:39:45;95617.19;;;15.70;100.00
4590;BME280;2307;48.448;9.216;2022-10-26T07:42:12;95614.59;;;15.85;100.00
4590;BME280;2307;48.448;9.216;2022-10-26T07:44:39;95617.78;;;15.87;100.00
4590;BME280;2307;48.448;9.216;2022-10-26T07:47:06;95615.97;;;15.98;100.00
4590;BME280;2307;48.448;9.216;2022-10-26T07:49:32;95621.03;;;16.00;100.00
4590;BME280;2307;48.448;9.216;2022-10-26T07:51:58;95626.66;;;16.18;100.00
4590;BME280;2307;48.448;9.216;2022-10-26T07:54:25;95631.47;;;16.31;100.00
4590;BME280;2307;48.448;9.216;2022-10-26T07:56:51;95628.03;;;16.41;100.00
4590;BME280;2307;48.448;9.216;2022-10-26T07:59:19;95639.22;;;16.53;100.00
4590;BME280;2307;48.448;9.216;2022-10-26T08:01:45;95648.59;;;16.56;100.00
4590;BME280;2307;48.448;9.216;2022-10-26T08:04:11;95646.19;;;16.59;100.00
4590;BME280;2307;48.448;9.216;2022-10-26T08:06:38;95644.59;;;16.63;100.00
4590;BME280;2307;48.448;9.216;2022-10-26T08:09:04;95652.56;;;16.48;100.00
4590;BME280;2307;48.448;9.216;2022-10-26T08:11:31;95653.63;;;16.42;100.00
4590;BME280;2307;48.448;9.216;2022-10-26T08:13:57;95652.06;;;16.56;100.00
4590;BME280;2307;48.448;9.216;2022-10-26T08:16:25;95654.47;;;16.63;100.00
4590;BME280;2307;48.448;9.216;2022-10-26T08:18:52;95652.03;;;16.51;100.00
4590;BME280;2307;48.448;9.216;2022-10-26T08:21:18;95660.00;;;16.41;100.00
4590;BME280;2307;48.448;9.216;2022-10-26T08:23:44;95661.63;;;16.47;100.00
4590;BME280;2307;48.448;9.216;2022-10-26T08:26:11;95656.00;;;16.43;100.00
4590;BME280;2307;48.448;9.216;2022-10-26T08:28:37;95669.09;;;16.50;100.00
4590;BME280;2307;48.448;9.216;2022-10-26T08:31:05;95662.19;;;16.59;100.00
4590;BME280;2307;48.448;9.216;2022-10-26T08:33:32;95672.06;;;16.69;100.00
4590;BME280;2307;48.448;9.216;2022-10-26T08:36:00;95671.81;;;16.75;100.00
4590;BME280;2307;48.448;9.216;2022-10-26T08:38:27;95672.88;;;16.79;100.00
4590;BME280;2307;48.448;9.216;2022-10-26T08:40:53;95681.69;;;16.95;100.00
4590;BME280;2307;48.448;9.216;2022-10-26T08:43:23;95682.50;;;16.95;100.00
4590;BME280;2307;48.448;9.216;2022-10-26T08:45:53;95688.34;;;16.97;100.00
4590;BME280;2307;48.448;9.216;2022-10-26T08:48:20;95684.59;;;16.93;100.00
4590;BME280;2307;48.448;9.216;2022-10-26T08:50:51;95690.78;;;17.09;100.00
4590;BME280;2307;48.448;9.216;2022-10-26T08:53:19;95691.56;;;17.05;100.00
4590;BME280;2307;48.448;9.216;2022-10-26T08:55:49;95687.81;;;17.16;100.00
4590;BME280;2307;48.448;9.216;2022-10-26T08:58:18;95693.16;;;17.31;100.00
4590;BME280;2307;48.448;9.216;2022-10-26T09:00:46;95695.56;;;17.27;100.00
4590;BME280;2307;48.448;9.216;2022-10-26T09:03:14;95697.66;;;17.35;100.00
4590;BME280;2307;48.448;9.216;2022-10-26T09:05:51;95698.44;;;17.46;100.00
4590;BME280;2307;48.448;9.216;2022-10-26T09:08:26;95708.06;;;17.52;100.00
4590;BME280;2307;48.448;9.216;2022-10-26T09:10:56;95704.03;;;17.54;100.00
4590;BME280;2307;48.448;9.216;2022-10-26T09:13:30;95719.25;;;17.54;100.00
4590;BME280;2307;48.448;9.216;2022-10-26T09:15:59;95721.44;;;17.27;100.00
4590;BME280;2307;48.448;9.216;2022-10-26T09:18:31;95726.25;;;17.40;100.00
4590;BME280;2307;48.448;9.216;2022-10-26T09:21:03;95727.31;;;17.44;100.00
4590;BME280;2307;48.448;9.216;2022-10-26T09:26:20;95728.91;;;17.55;100.00
4590;BME280;2307;48.448;9.216;2022-10-26T09:28:49;95734.81;;;17.22;100.00
4590;BME280;2307;48.448;9.216;2022-10-26T09:31:15;95735.03;;;17.25;100.00
4590;BME280;2307;48.448;9.216;2022-10-26T09:33:42;95737.47;;;17.27;100.00
4590;BME280;2307;48.448;9.216;2022-10-26T09:36:09;95731.31;;;17.26;100.00
4590;BME280;2307;48.448;9.216;2022-10-26T09:38:38;95736.91;;;17.40;100.00
4590;BME280;2307;48.448;9.216;2022-10-26T09:41:09;95737.44;;;17.32;100.00
4590;BME280;2307;48.448;9.216;2022-10-26T09:43:39;95733.72;;;17.43;100.00
4590;BME280;2307;48.448;9.216;2022-10-26T09:46:07;95746.00;;;17.39;100.00
4590;BME280;2307;48.448;9.216;2022-10-26T09:48:39;95750.28;;;17.40;100.00
4590;BME280;2307;48.448;9.216;2022-10-26T09:51:08;95739.03;;;17.48;100.00
4590;BME280;2307;48.448;9.216;2022-10-26T09:53:35;95744.38;;;17.63;100.00
4590;BME280;2307;48.448;9.216;2022-10-26T09:56:03;95758.78;;;17.67;100.00
4590;BME280;2307;48.448;9.216;2022-10-26T09:58:31;95759.34;;;17.64;100.00
4590;BME280;2307;48.448;9.216;2022-10-26T10:01:01;95763.88;;;17.53;100.00
4590;BME280;2307;48.448;9.216;2022-10-26T10:03:28;95758.81;;;17.57;100.00
4590;BME280;2307;48.448;9.216;2022-10-26T10:06:09;95763.34;;;17.62;100.00
4590;BME280;2307;48.448;9.216;2022-10-26T10:08:39;95759.38;;;17.59;100.00
4590;BME280;2307;48.448;9.216;2022-10-26T10:11:06;95775.91;;;17.66;100.00
4590;BME280;2307;48.448;9.216;2022-10-26T10:13:34;95763.56;;;17.85;100.00
4590;BME280;2307;48.448;9.216;2022-10-26T10:16:04;95766.72;;;18.08;100.00
4590;BME280;2307;48.448;9.216;2022-10-26T10:18:31;95770.09;;;18.33;100.00
4590;BME280;2307;48.448;9.216;2022-10-26T10:20:58;95779.41;;;18.46;99.27
4590;BME280;2307;48.448;9.216;2022-10-26T10:23:25;95766.81;;;18.56;97.86
4590;BME280;2307;48.448;9.216;2022-10-26T10:28:37;95796.31;;;18.95;94.10
4590;BME280;2307;48.448;9.216;2022-10-26T10:31:06;95782.31;;;19.03;93.81
4590;BME280;2307;48.448;9.216;2022-10-26T10:33:43;95771.06;;;19.06;91.04
4590;BME280;2307;48.448;9.216;2022-10-26T10:36:10;95780.75;;;19.36;90.21
4590;BME280;2307;48.448;9.216;2022-10-26T10:38:40;95785.19;;;19.51;86.02
4590;BME280;2307;48.448;9.216;2022-10-26T10:41:13;95789.53;;;19.47;87.27
4590;BME280;2307;48.448;9.216;2022-10-26T10:43:42;95803.69;;;19.52;88.11
4590;BME280;2307;48.448;9.216;2022-10-26T10:46:11;95798.53;;;19.61;87.26
4590;BME280;2307;48.448;9.216;2022-10-26T10:48:46;95795.34;;;19.54;89.31
4590;BME280;2307;48.448;9.216;2022-10-26T10:51:16;95793.06;;;19.71;88.39
4590;BME280;2307;48.448;9.216;2022-10-26T10:53:44;95798.25;;;19.91;86.23
4590;BME280;2307;48.448;9.216;2022-10-26T10:56:27;95801.84;;;20.05;84.11
4590;BME280;2307;48.448;9.216;2022-10-26T10:59:00;95808.47;;;20.42;82.34
4590;BME280;2307;48.448;9.216;2022-10-26T11:01:35;95808.78;;;20.78;80.36
4590;BME280;2307;48.448;9.216;2022-10-26T11:06:51;95796.28;;;21.29;76.20
4590;BME280;2307;48.448;9.216;2022-10-26T11:09:23;95807.75;;;21.35;75.52
4590;BME280;2307;48.448;9.216;2022-10-26T11:11:52;95808.06;;;21.14;73.73
4590;BME280;2307;48.448;9.216;2022-10-26T11:14:20;95813.19;;;20.92;77.30
4590;BME280;2307;48.448;9.216;2022-10-26T11:16:51;95804.19;;;21.39;77.40
4590;BME280;2307;48.448;9.216;2022-10-26T11:19:19;95808.06;;;21.65;73.25
4590;BME280;2307;48.448;9.216;2022-10-26T11:21:47;95800.22;;;21.69;74.77
4590;BME280;2307;48.448;9.216;2022-10-26T11:24:17;95815.28;;;21.51;76.15
4590;BME280;2307;48.448;9.216;2022-10-26T11:26:46;95816.03;;;21.19;77.17
4590;BME280;2307;48.448;9.216;2022-10-26T11:32:05;95833.31;;;20.71;73.65
4590;BME280;2307;48.448;9.216;2022-10-26T11:34:35;95830.13;;;20.69;76.92
4590;BME280;2307;48.448;9.216;2022-10-26T11:37:07;95823.59;;;20.75;79.60
4590;BME280;2307;48.448;9.216;2022-10-26T11:39:37;95821.91;;;20.60;82.42
4590;BME280;2307;48.448;9.216;2022-10-26T11:42:08;95823.91;;;20.74;79.95
4590;BME280;2307;48.448;9.216;2022-10-26T11:44:42;95827.97;;;20.90;80.47
4590;BME280;2307;48.448;9.216;2022-10-26T11:47:13;95831.84;;;21.02;78.77
4590;BME280;2307;48.448;9.216;2022-10-26T11:49:41;95831.31;;;21.00;75.95
4590;BME280;2307;48.448;9.216;2022-10-26T11:52:11;95830.94;;;21.31;76.50
4590;BME280;2307;48.448;9.216;2022-10-26T11:54:42;95837.97;;;21.45;73.79
4590;BME280;2307;48.448;9.216;2022-10-26T11:57:11;95828.34;;;21.58;71.00
4590;BME280;2307;48.448;9.216;2022-10-26T11:59:41;95828.31;;;21.77;71.64
4590;BME280;2307;48.448;9.216;2022-10-26T12:02:09;95829.69;;;21.74;69.81
4590;BME280;2307;48.448;9.216;2022-10-26T12:04:39;95826.13;;;21.97;68.30
4590;BME280;2307;48.448;9.216;2022-10-26T12:07:07;95824.63;;;21.91;63.65
4590;BME280;2307;48.448;9.216;2022-10-26T12:09:36;95829.53;;;22.16;67.60
4590;BME280;2307;48.448;9.216;2022-10-26T12:12:05;95846.94;;;22.05;64.35
4590;BME280;2307;48.448;9.216;2022-10-26T12:14:33;95844.75;;;21.94;64.21
4590;BME280;2307;48.448;9.216;2022-10-26T12:17:04;95841.53;;;21.73;65.19
4590;BME280;2307;48.448;9.216;2022-10-26T12:19:32;95842.84;;;21.94;67.56
4590;BME280;2307;48.448;9.216;2022-10-26T12:22:06;95839.09;;;22.09;64.21
4590;BME280;2307;48.448;9.216;2022-10-26T12:24:34;95843.13;;;21.93;63.54
4590;BME280;2307;48.448;9.216;2022-10-26T12:27:03;95841.59;;;22.19;62.01
4590;BME280;2307;48.448;9.216;2022-10-26T12:29:31;95846.84;;;22.10;60.63
4590;BME280;2307;48.448;9.216;2022-10-26T12:32:00;95848.44;;;21.79;60.62
4590;BME280;2307;48.448;9.216;2022-10-26T12:37:22;95849.63;;;22.05;60.31
4590;BME280;2307;48.448;9.216;2022-10-26T12:39:49;95849.72;;;22.00;63.26
4590;BME280;2307;48.448;9.216;2022-10-26T12:42:28;95854.31;;;22.13;63.27
4590;BME280;2307;48.448;9.216;2022-10-26T12:45:06;95836.72;;;22.35;62.12
4590;BME280;2307;48.448;9.216;2022-10-26T12:50:24;95840.66;;;22.83;57.35
4590;BME280;2307;48.448;9.216;2022-10-26T12:52:52;95843.03;;;22.71;56.67
4590;BME280;2307;48.448;9.216;2022-10-26T13:00:43;95850.63;;;22.83;54.37
4590;BME280;2307;48.448;9.216;2022-10-26T13:03:15;95857.66;;;22.65;57.59
4590;BME280;2307;48.448;9.216;2022-10-26T13:05:56;95861.97;;;22.39;58.42
4590;BME280;2307;48.448;9.216;2022-10-26T13:08:29;95867.59;;;22.69;58.50
4590;BME280;2307;48.448;9.216;2022-10-26T13:11:04;95863.38;;;22.91;56.15
4590;BME280;2307;48.448;9.216;2022-10-26T13:13:31;95861.81;;;22.76;56.26
4590;BME280;2307;48.448;9.216;2022-10-26T13:15:59;95859.19;;;22.71;57.17
4590;BME280;2307;48.448;9.216;2022-10-26T13:18:26;95863.50;;;22.72;56.04
4590;BME280;2307;48.448;9.216;2022-10-26T13:20:57;95858.38;;;22.84;55.54
4590;BME280;2307;48.448;9.216;2022-10-26T13:23:28;95859.19;;;22.85;56.14
4590;BME280;2307;48.448;9.216;2022-10-26T13:26:04;95869.38;;;23.01;53.64
4590;BME280;2307;48.448;9.216;2022-10-26T13:28:32;95867.56;;;22.97;53.74
4590;BME280;2307;48.448;9.216;2022-10-26T13:30:59;95855.56;;;23.16;53.50
4590;BME280;2307;48.448;9.216;2022-10-26T13:33:30;95866.94;;;23.13;54.02
4590;BME280;2307;48.448;9.216;2022-10-26T13:36:00;95865.13;;;23.09;53.90
4590;BME280;2307;48.448;9.216;2022-10-26T13:38:29;95869.75;;;23.08;54.20
4590;BME280;2307;48.448;9.216;2022-10-26T13:41:06;95876.44;;;22.97;53.25
4590;BME280;2307;48.448;9.216;2022-10-26T13:43:32;95872.19;;;22.83;52.92
4590;BME280;2307;48.448;9.216;2022-10-26T13:46:03;95868.84;;;22.45;53.17